»·PEaware :: UAL1155 KLAX-KSFO

UAL1155 :: KLAX-KSFO

FLIGHT INFORMATION

Flight Status: Arrived
Operator:
United Airlines
More flights by this operator :: More flights under this callsign
Pilot: Utku A. (15598)
Aircraft: BOEING 737-800
(B738)
More flights by this aircraft type
Origin: KLAX Los Angeles Intl
United States
Destination: KSFO San Francisco Intl
United States
More flights between these airports :: More routes between these airports
Route: SUMMR1 STOKD SERFR SERFR3
File this flight plan on PilotEdge
Remarks:
Altitude:
(Current/Filed)
36,000ft
Speed:
(Current/Filed)
452kts
Departed: 03-Aug-18 04:15 PM
Arrived: 03-Aug-18 05:12 PM
Distance/Time
Traveled:
293nm/0:56
Distance/Time
To Go:
Arrived

Flight Plot

Page will automatically refresh every two minutes.

Flight plan parsing failed; only flown route is shown


Map Options




Map Legend


Flown Route
Filed Route
Departure Airport
Arrival Airport
Navaid (VOR, NDB)
Fix

Horizontal Profiles

Position Reports

Time Latitude Longitude Heading Altitude Ground
Speed
03-Aug-18 15:47 33.942138 -118.400243 83 110ft 0kts
03-Aug-18 15:48 33.942138 -118.400243 83 110ft 0kts
03-Aug-18 15:49 33.942138 -118.400243 83 110ft 0kts
03-Aug-18 15:50 33.942138 -118.400243 83 110ft 0kts
03-Aug-18 15:51 33.942138 -118.400243 83 110ft 0kts
03-Aug-18 15:52 33.942138 -118.400243 83 110ft 0kts
03-Aug-18 15:53 33.942138 -118.400243 83 110ft 0kts
03-Aug-18 15:54 33.942138 -118.400243 83 110ft 0kts
03-Aug-18 15:55 33.942138 -118.400243 83 110ft 0kts
03-Aug-18 15:56 33.942138 -118.400243 83 110ft 0kts
03-Aug-18 15:57 33.942138 -118.400243 83 110ft 0kts
03-Aug-18 15:58 33.942138 -118.400243 83 110ft 0kts
03-Aug-18 15:59 33.942138 -118.400243 83 110ft 0kts
03-Aug-18 16:00 33.942138 -118.400243 83 110ft 0kts
03-Aug-18 16:01 33.942138 -118.400243 83 110ft 0kts
03-Aug-18 16:02 33.942138 -118.400243 83 110ft 0kts
03-Aug-18 16:03 33.942134 -118.400284 83 110ft 2kts
03-Aug-18 16:04 33.942246 -118.400926 154 110ft 2kts
03-Aug-18 16:05 33.942397 -118.400964 174 110ft 0kts
03-Aug-18 16:06 33.942397 -118.400964 174 110ft 0kts
03-Aug-18 16:07 33.942397 -118.400964 174 110ft 0kts
03-Aug-18 16:08 33.941656 -118.400862 173 110ft 9kts
03-Aug-18 16:09 33.940534 -118.400700 173 110ft 0kts
03-Aug-18 16:10 33.939276 -118.400505 162 110ft 12kts
03-Aug-18 16:11 33.939278 -118.394981 83 110ft 20kts
03-Aug-18 16:12 33.939940 -118.388221 82 110ft 20kts
03-Aug-18 16:13 33.940578 -118.381738 83 110ft 14kts
03-Aug-18 16:14 33.940621 -118.381314 83 110ft 0kts
03-Aug-18 16:15 33.940443 -118.380269 141 110ft 9kts
03-Aug-18 16:16 33.939164 -118.386361 263 110ft 91kts
03-Aug-18 16:17 33.934243 -118.436196 261 1354ft 171kts
03-Aug-18 16:18 33.928419 -118.496881 263 2904ft 194kts
03-Aug-18 16:19 33.921801 -118.576372 263 4354ft 263kts
03-Aug-18 16:20 33.916520 -118.663393 269 7106ft 272kts
03-Aug-18 16:21 33.916452 -118.755653 270 9639ft 283kts
03-Aug-18 16:22 33.916705 -118.856045 272 11474ft 314kts
03-Aug-18 16:23 33.920070 -118.962093 272 13969ft 325kts
03-Aug-18 16:24 33.945685 -119.065104 301 16564ft 335kts
03-Aug-18 16:25 33.996078 -119.161519 301 18971ft 345kts
03-Aug-18 16:26 34.064317 -119.235624 323 21042ft 357kts
03-Aug-18 16:27 34.146237 -119.304920 323 23028ft 367kts
03-Aug-18 16:28 34.230435 -119.377086 323 24837ft 377kts
03-Aug-18 16:29 34.316715 -119.451440 322 26469ft 387kts
03-Aug-18 16:30 34.404971 -119.527812 321 27977ft 396kts
03-Aug-18 16:31 34.484001 -119.620797 313 29446ft 399kts
03-Aug-18 16:32 34.560931 -119.715816 312 31033ft 399kts
03-Aug-18 16:33 34.638151 -119.811388 312 32578ft 396kts
03-Aug-18 16:34 34.714710 -119.906342 311 33949ft 393kts
03-Aug-18 16:35 34.790885 -120.001055 311 35153ft 392kts
03-Aug-18 16:36 34.866841 -120.095751 311 35956ft 398kts
03-Aug-18 16:37 34.946079 -120.194827 311 35985ft 423kts
03-Aug-18 16:38 35.027673 -120.296988 309 35989ft 417kts
03-Aug-18 16:39 35.108297 -120.396292 312 35985ft 419kts
03-Aug-18 16:40 35.193364 -120.491593 312 35964ft 419kts
03-Aug-18 16:41 35.279271 -120.587970 312 35959ft 419kts
03-Aug-18 16:42 35.364400 -120.683798 312 35969ft 419kts
03-Aug-18 16:43 35.450200 -120.780810 312 35948ft 421kts
03-Aug-18 16:44 35.539822 -120.872430 317 35944ft 425kts
03-Aug-18 16:45 35.633951 -120.959414 317 35931ft 426kts
03-Aug-18 16:46 35.729110 -121.047734 317 35910ft 432kts
03-Aug-18 16:47 35.824855 -121.136732 316 35912ft 433kts
03-Aug-18 16:48 35.921576 -121.226857 316 34386ft 434kts
03-Aug-18 16:49 36.016904 -121.315850 317 32394ft 433kts
03-Aug-18 16:50 36.110284 -121.397652 322 30485ft 436kts
03-Aug-18 16:51 36.205272 -121.471796 323 28629ft 437kts
03-Aug-18 16:52 36.306897 -121.551258 324 26603ft 427kts
03-Aug-18 16:53 36.401754 -121.625539 325 24547ft 387kts
03-Aug-18 16:54 36.488781 -121.693994 325 22532ft 360kts
03-Aug-18 16:55 36.571096 -121.759062 326 20546ft 350kts
03-Aug-18 16:56 36.651713 -121.822956 326 19012ft 335kts
03-Aug-18 16:57 36.731228 -121.886076 327 19015ft 343kts
03-Aug-18 16:58 36.822906 -121.918416 346 17227ft 338kts
03-Aug-18 16:59 36.898415 -121.939084 346 14883ft 333kts
03-Aug-18 17:00 36.999917 -121.971929 342 12416ft 314kts
03-Aug-18 17:01 37.080217 -122.003197 341 11141ft 299kts
03-Aug-18 17:02 37.157342 -122.033310 340 10151ft 288kts
03-Aug-18 17:03 37.229886 -122.061683 340 9134ft 267kts
03-Aug-18 17:04 37.288338 -122.084638 341 8150ft 265kts
03-Aug-18 17:05 37.357882 -122.112044 341 6449ft 259kts
03-Aug-18 17:06 37.433158 -122.139182 344 5229ft 223kts
03-Aug-18 17:07 37.481063 -122.155580 344 3916ft 211kts
03-Aug-18 17:08 37.534957 -122.176963 318 3073ft 192kts
03-Aug-18 17:09 37.558533 -122.231306 296 2233ft 164kts
03-Aug-18 17:10 37.577983 -122.278123 296 1432ft 142kts
03-Aug-18 17:11 37.596217 -122.321304 296 721ft 138kts
03-Aug-18 17:12 37.613662 -122.362941 296 24ft 126kts
03-Aug-18 17:13 37.619731 -122.379211 228 29ft 8kts
03-Aug-18 17:14 37.619301 -122.381156 296 31ft 8kts
03-Aug-18 17:15 37.619103 -122.383200 287 30ft 3kts
03-Aug-18 17:16 37.619194 -122.383526 290 31ft 0kts
03-Aug-18 17:17 37.619194 -122.383526 290 31ft 0kts
03-Aug-18 17:18 37.619194 -122.383526 290 31ft 0kts
03-Aug-18 17:19 37.619194 -122.383526 290 31ft 0kts
03-Aug-18 17:20 37.619194 -122.383526 290 31ft 0kts
03-Aug-18 17:21 37.619194 -122.383526 290 31ft 0kts
03-Aug-18 17:22 37.619194 -122.383526 290 31ft 0kts
03-Aug-18 17:23 37.619194 -122.383526 290 31ft 0kts
03-Aug-18 17:24 37.619194 -122.383526 290 31ft 0kts
03-Aug-18 17:25 37.619194 -122.383526 290 31ft 0kts
03-Aug-18 17:26 37.619194 -122.383526 290 31ft 0kts
03-Aug-18 17:27 37.619194 -122.383526 290 31ft 0kts

Navigation Log

Ident Type
Flight plan parsing failed, navigation log unavailable